createdAt,value
2017-10-11T00:01:07.800Z,30.30
2017-10-11T00:03:36.488Z,30.20
2017-10-11T00:06:04.452Z,30.20
2017-10-11T00:08:33.244Z,30.20
2017-10-11T00:11:01.928Z,30.20
2017-10-11T00:13:30.490Z,30.20
2017-10-11T00:15:59.814Z,30.00
2017-10-11T00:18:27.733Z,30.00
2017-10-11T00:20:55.697Z,30.10
2017-10-11T00:23:23.807Z,30.00
2017-10-11T00:25:51.745Z,29.90
2017-10-11T00:28:20.009Z,30.00
2017-10-11T00:30:48.593Z,30.00
2017-10-11T00:33:16.563Z,30.00
2017-10-11T00:35:44.548Z,29.90
2017-10-11T00:38:13.193Z,29.90
2017-10-11T00:40:41.708Z,29.90
2017-10-11T00:43:10.357Z,29.90
2017-10-11T00:45:38.436Z,29.80
2017-10-11T00:48:06.399Z,29.80
2017-10-11T00:50:34.330Z,29.80
2017-10-11T00:53:03.678Z,29.70
2017-10-11T00:55:32.368Z,29.70
2017-10-11T00:58:00.849Z,29.70
2017-10-11T01:00:29.645Z,29.70
2017-10-11T01:02:58.328Z,29.60
2017-10-11T01:05:26.280Z,29.70
2017-10-11T01:07:54.396Z,29.60
2017-10-11T01:10:22.849Z,29.60
2017-10-11T01:12:51.465Z,29.60
2017-10-11T01:15:19.881Z,29.50
2017-10-11T01:17:49.321Z,29.50
2017-10-11T01:20:17.444Z,29.50
2017-10-11T01:22:45.604Z,29.50
2017-10-11T01:25:13.981Z,29.50
2017-10-11T01:27:42.158Z,29.50
2017-10-11T01:30:10.704Z,29.50
2017-10-11T01:32:39.193Z,29.50
2017-10-11T01:35:07.313Z,29.50
2017-10-11T01:37:35.421Z,29.50
2017-10-11T01:40:03.931Z,29.40
2017-10-11T01:42:32.438Z,29.50
2017-10-11T01:45:01.025Z,29.50
2017-10-11T01:47:29.640Z,29.50
2017-10-11T01:49:58.903Z,29.50
2017-10-11T01:52:27.065Z,29.50
2017-10-11T01:54:55.325Z,29.50
2017-10-11T01:57:24.016Z,29.40
2017-10-11T01:59:52.130Z,29.40
2017-10-11T02:02:20.680Z,29.40
2017-10-11T02:04:48.617Z,29.40
2017-10-11T02:07:17.565Z,29.40
2017-10-11T02:09:45.629Z,29.40
2017-10-11T02:12:14.301Z,29.40
2017-10-11T02:14:42.493Z,29.40
2017-10-11T02:17:11.462Z,29.40
2017-10-11T02:19:39.420Z,29.40
2017-10-11T02:22:07.501Z,29.30
2017-10-11T02:24:35.456Z,29.30
2017-10-11T02:27:03.489Z,29.30
2017-10-11T02:29:32.857Z,29.30
2017-10-11T02:32:01.654Z,29.30
2017-10-11T02:34:29.620Z,29.30
2017-10-11T02:36:57.694Z,29.30
2017-10-11T02:39:25.658Z,29.40
2017-10-11T02:41:54.344Z,29.40
2017-10-11T02:44:22.446Z,29.40
2017-10-11T02:46:50.437Z,29.30
2017-10-11T02:49:18.476Z,29.20
2017-10-11T02:51:46.565Z,29.30
2017-10-11T02:54:14.649Z,29.30
2017-10-11T02:56:42.621Z,29.30
2017-10-11T02:59:10.761Z,29.30
2017-10-11T03:01:38.705Z,29.30
2017-10-11T03:04:07.516Z,29.30
2017-10-11T03:06:35.592Z,29.40
2017-10-11T03:09:03.900Z,29.40
2017-10-11T03:11:31.861Z,29.50
2017-10-11T03:14:00.693Z,29.50
2017-10-11T03:16:29.958Z,29.50
2017-10-11T03:18:58.784Z,29.50
2017-10-11T03:21:27.590Z,29.70
2017-10-11T03:23:55.558Z,29.70
2017-10-11T03:26:24.057Z,29.70
2017-10-11T03:28:52.568Z,30.00
2017-10-11T03:31:21.237Z,30.10
2017-10-11T03:33:49.164Z,30.30
2017-10-11T03:36:18.068Z,30.40
2017-10-11T03:38:46.037Z,30.40
2017-10-11T03:41:14.552Z,30.50
2017-10-11T03:43:42.621Z,30.70
2017-10-11T03:46:11.101Z,30.90
2017-10-11T03:48:39.689Z,31.00
2017-10-11T03:51:08.574Z,31.10
2017-10-11T03:53:36.521Z,31.30
2017-10-11T03:56:05.205Z,31.80
2017-10-11T03:58:34.748Z,32.60
2017-10-11T04:01:03.364Z,32.50
2017-10-11T04:03:32.085Z,33.30
2017-10-11T04:06:01.520Z,33.00
2017-10-11T04:08:29.460Z,32.90
2017-10-11T04:10:58.148Z,32.50
2017-10-11T04:13:27.509Z,32.30
2017-10-11T04:15:56.069Z,32.30
2017-10-11T04:18:24.973Z,32.40
2017-10-11T04:20:54.184Z,32.70
2017-10-11T04:23:22.245Z,32.70
2017-10-11T04:25:50.353Z,32.70
2017-10-11T04:28:19.073Z,32.70
2017-10-11T04:30:47.695Z,32.80
2017-10-11T04:33:16.213Z,32.80
2017-10-11T04:35:45.773Z,33.10
2017-10-11T04:38:14.388Z,33.10
2017-10-11T04:40:42.488Z,33.10
2017-10-11T04:43:11.421Z,33.50
2017-10-11T04:45:40.136Z,33.50
2017-10-11T04:48:08.796Z,33.70
2017-10-11T04:50:37.509Z,33.80
2017-10-11T04:53:05.497Z,33.90
2017-10-11T04:55:33.477Z,34.40
2017-10-11T04:58:02.310Z,36.20
2017-10-11T05:00:31.004Z,36.20
2017-10-11T05:02:59.787Z,37.10
2017-10-11T05:05:28.373Z,38.00
2017-10-11T05:07:56.379Z,38.20
2017-10-11T05:10:24.426Z,37.90
2017-10-11T05:12:52.557Z,37.60
2017-10-11T05:15:21.976Z,36.40
2017-10-11T05:17:49.972Z,36.30
2017-10-11T05:20:18.049Z,36.40
2017-10-11T05:22:46.189Z,36.40
2017-10-11T05:25:14.884Z,36.10
2017-10-11T05:27:42.932Z,36.10
2017-10-11T05:30:11.589Z,36.20
2017-10-11T05:32:40.348Z,36.20
2017-10-11T05:35:08.765Z,36.20
2017-10-11T05:37:36.677Z,36.00
2017-10-11T05:40:05.380Z,35.90
2017-10-11T05:42:33.440Z,35.90
2017-10-11T05:45:01.365Z,36.10
2017-10-11T05:47:30.098Z,35.90
2017-10-11T05:49:58.127Z,36.10
2017-10-11T05:52:26.780Z,36.10
2017-10-11T05:54:55.566Z,36.20
2017-10-11T05:57:23.617Z,36.20
2017-10-11T05:59:51.577Z,36.50
2017-10-11T06:02:20.685Z,36.70
2017-10-11T06:04:49.402Z,36.70
2017-10-11T06:07:18.049Z,37.10
2017-10-11T06:09:47.420Z,37.30
2017-10-11T06:12:15.476Z,37.20
2017-10-11T06:14:43.433Z,37.50
2017-10-11T06:17:11.389Z,38.30
2017-10-11T06:19:40.192Z,39.30
2017-10-11T06:22:08.569Z,40.40
2017-10-11T06:24:37.260Z,41.40
2017-10-11T06:27:05.369Z,42.00
2017-10-11T06:29:33.286Z,42.00
2017-10-11T06:32:01.812Z,41.40
2017-10-11T06:34:30.485Z,41.00
2017-10-11T06:36:58.413Z,40.30
2017-10-11T06:39:27.613Z,39.60
2017-10-11T06:41:55.692Z,39.60
2017-10-11T06:44:23.688Z,39.60
2017-10-11T06:46:52.298Z,39.30
2017-10-11T06:49:21.021Z,39.50
2017-10-11T06:51:49.738Z,39.10
2017-10-11T06:54:18.233Z,39.10
2017-10-11T06:56:46.456Z,38.80
2017-10-11T06:59:15.116Z,39.00
2017-10-11T07:01:43.089Z,38.90
2017-10-11T07:04:11.133Z,38.80
2017-10-11T07:06:39.124Z,38.60
2017-10-11T07:09:07.068Z,38.70
2017-10-11T07:11:35.144Z,38.60
2017-10-11T07:14:03.088Z,38.50
2017-10-11T07:16:31.823Z,38.40
2017-10-11T07:19:00.311Z,38.40
2017-10-11T07:21:28.257Z,38.40
2017-10-11T07:23:56.177Z,38.20
2017-10-11T07:26:25.160Z,38.40
2017-10-11T07:28:53.113Z,38.40
2017-10-11T07:31:21.091Z,38.90
2017-10-11T07:33:49.168Z,39.10
2017-10-11T07:36:17.076Z,40.40
2017-10-11T07:38:45.729Z,41.80
2017-10-11T07:41:13.773Z,41.80
2017-10-11T07:43:41.766Z,41.40
2017-10-11T07:46:09.745Z,40.30
2017-10-11T07:48:39.177Z,39.60
2017-10-11T07:51:08.480Z,39.20
2017-10-11T07:53:37.817Z,38.80
2017-10-11T07:56:06.605Z,38.80
2017-10-11T07:58:34.580Z,38.60
2017-10-11T08:01:02.713Z,38.40
2017-10-11T08:03:31.569Z,38.40
2017-10-11T08:06:00.124Z,38.40
2017-10-11T08:08:28.737Z,37.90
2017-10-11T08:10:57.301Z,37.70
2017-10-11T08:13:25.806Z,37.50
2017-10-11T08:15:53.772Z,37.20
2017-10-11T08:18:22.569Z,37.30
2017-10-11T08:20:51.301Z,37.40
2017-10-11T08:23:19.632Z,37.50
2017-10-11T08:25:47.666Z,37.50
2017-10-11T08:28:15.737Z,37.50
2017-10-11T08:30:43.707Z,37.30
2017-10-11T08:33:12.412Z,37.20
2017-10-11T08:35:41.020Z,37.30
2017-10-11T08:38:09.469Z,37.20
2017-10-11T08:40:39.013Z,36.90
2017-10-11T08:43:07.569Z,36.90
2017-10-11T08:45:35.576Z,37.00
2017-10-11T08:48:03.639Z,37.20
2017-10-11T08:50:31.637Z,37.30
2017-10-11T08:53:00.336Z,37.30
2017-10-11T08:55:29.413Z,37.20
2017-10-11T08:57:58.157Z,37.30
2017-10-11T09:00:26.128Z,37.30
2017-10-11T09:02:54.341Z,37.20
2017-10-11T09:05:22.889Z,37.00
2017-10-11T09:07:51.568Z,37.10
2017-10-11T09:10:20.113Z,37.00
2017-10-11T09:12:49.247Z,37.00
2017-10-11T09:15:17.213Z,37.00
2017-10-11T09:17:45.470Z,37.10
2017-10-11T09:20:14.526Z,37.20
2017-10-11T09:22:42.484Z,37.20
2017-10-11T09:25:11.109Z,37.20
2017-10-11T09:27:40.165Z,37.10
2017-10-11T09:30:08.836Z,37.10
2017-10-11T09:32:37.013Z,37.20
2017-10-11T09:35:04.974Z,37.20
2017-10-11T09:37:33.765Z,37.20
2017-10-11T09:40:01.883Z,37.20
2017-10-11T09:42:30.493Z,37.10
2017-10-11T09:44:59.837Z,36.90
2017-10-11T09:47:28.652Z,36.90
2017-10-11T09:49:56.605Z,37.10
2017-10-11T09:52:24.540Z,37.10
2017-10-11T09:54:54.206Z,37.20
2017-10-11T09:57:29.363Z,37.20
2017-10-11T09:59:58.105Z,37.10
2017-10-11T10:02:26.128Z,37.20
2017-10-11T10:04:54.891Z,36.90
2017-10-11T10:07:23.757Z,36.80
2017-10-11T10:09:51.711Z,36.80
2017-10-11T10:12:20.206Z,36.70
2017-10-11T10:14:49.097Z,36.70
2017-10-11T10:17:17.049Z,36.70
2017-10-11T10:19:45.000Z,36.70
2017-10-11T10:22:14.548Z,36.40
2017-10-11T10:24:43.231Z,36.40
2017-10-11T10:27:11.645Z,36.50
2017-10-11T10:29:39.721Z,36.50
2017-10-11T10:32:07.937Z,36.60
2017-10-11T10:34:35.849Z,36.50
2017-10-11T10:37:03.922Z,36.40
2017-10-11T10:39:32.313Z,36.40
2017-10-11T10:42:00.900Z,36.40
2017-10-11T10:44:29.660Z,36.40
2017-10-11T10:46:57.601Z,36.40
2017-10-11T10:49:25.619Z,36.50
2017-10-11T10:51:53.704Z,36.40
2017-10-11T10:54:22.228Z,36.40
2017-10-11T10:56:50.950Z,36.30
2017-10-11T10:59:19.025Z,36.30
2017-10-11T11:01:47.013Z,36.20
2017-10-11T11:04:14.973Z,36.00
2017-10-11T11:06:43.040Z,36.00
2017-10-11T11:09:11.553Z,36.10
2017-10-11T11:11:40.127Z,36.10
2017-10-11T11:14:08.994Z,36.10
2017-10-11T11:16:37.241Z,36.10
2017-10-11T11:19:05.173Z,36.10
2017-10-11T11:21:33.276Z,36.10
2017-10-11T11:24:02.019Z,35.90
2017-10-11T11:26:30.422Z,35.90
2017-10-11T11:28:59.070Z,35.80
2017-10-11T11:31:27.753Z,35.80
2017-10-11T11:33:55.857Z,35.90
2017-10-11T11:36:24.001Z,35.90
2017-10-11T11:38:51.952Z,35.90
2017-10-11T11:41:20.451Z,36.00
2017-10-11T11:43:48.864Z,36.00
2017-10-11T11:46:18.437Z,36.00
2017-10-11T11:48:46.432Z,36.00
2017-10-11T11:51:14.513Z,36.00
2017-10-11T11:53:42.436Z,36.00
2017-10-11T11:56:10.973Z,35.80
2017-10-11T11:58:39.735Z,35.90
2017-10-11T12:01:08.381Z,36.00
2017-10-11T12:03:37.137Z,35.90
2017-10-11T12:06:05.230Z,35.80
2017-10-11T12:08:33.966Z,35.60
2017-10-11T12:11:01.938Z,35.60
2017-10-11T12:13:30.269Z,35.70
2017-10-11T12:15:59.804Z,35.60
2017-10-11T12:18:27.736Z,35.50
2017-10-11T12:20:56.019Z,35.50
2017-10-11T12:23:25.444Z,35.40
2017-10-11T12:25:54.144Z,35.40
2017-10-11T12:28:24.356Z,35.40
2017-10-11T12:30:53.580Z,35.30
2017-10-11T12:33:23.057Z,35.30
2017-10-11T12:35:53.013Z,35.30
2017-10-11T12:38:20.972Z,35.30
2017-10-11T12:40:49.570Z,35.20
2017-10-11T12:43:18.357Z,35.10
2017-10-11T12:45:47.705Z,35.00
2017-10-11T12:48:16.177Z,35.00
2017-10-11T12:50:44.261Z,35.10
2017-10-11T12:53:12.950Z,35.00
2017-10-11T12:55:41.692Z,35.00
2017-10-11T12:58:09.872Z,35.00
2017-10-11T13:00:38.480Z,34.90
2017-10-11T13:03:06.558Z,34.90
2017-10-11T13:05:34.626Z,34.70
2017-10-11T13:08:02.541Z,34.70
2017-10-11T13:10:31.040Z,34.70
2017-10-11T13:12:59.116Z,34.70
2017-10-11T13:15:27.040Z,34.70
2017-10-11T13:17:55.761Z,34.60
2017-10-11T13:20:23.866Z,34.60
2017-10-11T13:22:51.883Z,34.60
2017-10-11T13:25:19.849Z,34.50
2017-10-11T13:27:48.673Z,34.40
2017-10-11T13:30:16.656Z,34.40
2017-10-11T13:32:45.141Z,34.40
2017-10-11T13:35:13.232Z,34.40
2017-10-11T13:37:41.316Z,34.30
2017-10-11T13:40:09.364Z,34.30
2017-10-11T13:42:37.478Z,34.10
2017-10-11T13:45:06.193Z,34.10
2017-10-11T13:47:34.181Z,34.10
2017-10-11T13:50:02.250Z,34.10
2017-10-11T13:52:30.223Z,34.10
2017-10-11T13:54:58.141Z,34.00
2017-10-11T13:57:26.253Z,33.90
2017-10-11T13:59:54.176Z,33.90
2017-10-11T14:02:22.536Z,33.90
2017-10-11T14:04:51.218Z,33.80
2017-10-11T14:07:19.170Z,33.80
2017-10-11T14:09:47.124Z,33.80
2017-10-11T14:12:15.205Z,33.70
2017-10-11T14:14:43.911Z,33.70
2017-10-11T14:17:12.593Z,33.70
2017-10-11T14:19:41.245Z,33.70
2017-10-11T14:22:09.921Z,33.60
2017-10-11T14:24:38.673Z,33.50
2017-10-11T14:27:06.904Z,33.50
2017-10-11T14:29:35.618Z,33.50
2017-10-11T14:32:04.132Z,33.50
2017-10-11T14:34:32.180Z,33.50
2017-10-11T14:37:00.153Z,33.40
2017-10-11T14:39:28.276Z,33.50
2017-10-11T14:41:57.117Z,33.40
2017-10-11T14:44:25.797Z,33.40
2017-10-11T14:46:54.213Z,33.30
2017-10-11T14:49:22.973Z,33.40
2017-10-11T14:51:50.896Z,33.40
2017-10-11T14:54:19.592Z,33.30
2017-10-11T14:56:48.418Z,33.30
2017-10-11T14:59:16.336Z,33.30
2017-10-11T15:01:44.986Z,33.20
2017-10-11T15:04:13.730Z,33.30
2017-10-11T15:06:43.092Z,33.20
2017-10-11T15:09:11.016Z,33.20
2017-10-11T15:11:39.084Z,33.20
2017-10-11T15:14:07.421Z,33.20
2017-10-11T15:16:35.873Z,33.20
2017-10-11T15:19:03.953Z,33.20
2017-10-11T15:21:32.597Z,33.10
2017-10-11T15:24:01.248Z,33.10
2017-10-11T15:26:29.291Z,33.10
2017-10-11T15:28:57.317Z,33.10
2017-10-11T15:31:26.537Z,33.10
2017-10-11T15:33:55.277Z,33.10
2017-10-11T15:36:23.938Z,33.10
2017-10-11T15:38:51.894Z,33.10
2017-10-11T15:41:20.106Z,33.10
2017-10-11T15:43:48.058Z,33.10
2017-10-11T15:46:16.835Z,33.10
2017-10-11T15:48:45.384Z,33.00
2017-10-11T15:51:14.825Z,33.00
2017-10-11T15:53:43.241Z,33.00
2017-10-11T15:56:11.334Z,33.00
2017-10-11T15:58:40.041Z,33.00
2017-10-11T16:01:09.270Z,33.00
2017-10-11T16:03:38.985Z,32.90
2017-10-11T16:06:06.901Z,32.90
2017-10-11T16:08:34.832Z,32.90
2017-10-11T16:11:03.678Z,32.80
2017-10-11T16:13:32.980Z,32.90
2017-10-11T16:16:01.709Z,32.80
2017-10-11T16:18:31.120Z,32.80
2017-10-11T16:21:01.118Z,32.80
2017-10-11T16:23:30.035Z,32.80
2017-10-11T16:25:59.827Z,32.80
2017-10-11T16:28:30.858Z,32.80
2017-10-11T16:31:01.797Z,32.80
2017-10-11T16:33:30.396Z,32.80
2017-10-11T16:35:58.628Z,32.70
2017-10-11T16:38:28.249Z,32.70
2017-10-11T16:40:56.945Z,32.70
2017-10-11T16:43:24.944Z,32.70
2017-10-11T16:45:53.017Z,32.80
2017-10-11T16:48:24.991Z,32.70
2017-10-11T16:50:53.800Z,32.70
2017-10-11T16:53:22.458Z,32.70
2017-10-11T16:55:50.441Z,32.70
2017-10-11T16:58:18.585Z,32.70
2017-10-11T17:00:46.589Z,32.70
2017-10-11T17:03:15.050Z,32.60
2017-10-11T17:05:43.156Z,32.70
2017-10-11T17:08:11.880Z,32.70
2017-10-11T17:10:40.581Z,32.60
2017-10-11T17:13:08.677Z,32.60
2017-10-11T17:15:36.670Z,32.70
2017-10-11T17:18:04.616Z,32.60
2017-10-11T17:20:33.338Z,32.60
2017-10-11T17:23:01.926Z,32.60
2017-10-11T17:25:30.301Z,32.50
2017-10-11T17:27:58.357Z,32.60
2017-10-11T17:30:26.336Z,32.50
2017-10-11T17:32:55.105Z,32.50
2017-10-11T17:35:23.684Z,32.50
2017-10-11T17:37:52.279Z,32.50
2017-10-11T17:40:20.257Z,32.40
2017-10-11T17:42:48.347Z,32.50
2017-10-11T17:45:16.297Z,32.40
2017-10-11T17:47:44.301Z,32.40
2017-10-11T17:50:12.945Z,32.50
2017-10-11T17:52:40.897Z,32.40
2017-10-11T17:55:09.297Z,32.50
2017-10-11T17:57:38.089Z,32.40
2017-10-11T18:00:06.024Z,32.40
2017-10-11T18:02:34.668Z,32.30
2017-10-11T18:05:03.636Z,32.30
2017-10-11T18:07:32.317Z,32.30
2017-10-11T18:10:00.809Z,32.30
2017-10-11T18:12:28.930Z,32.30
2017-10-11T18:14:57.598Z,32.30
2017-10-11T18:17:25.514Z,32.30
2017-10-11T18:19:54.217Z,32.30
2017-10-11T18:22:23.630Z,32.30
2017-10-11T18:24:52.081Z,32.20
2017-10-11T18:27:21.581Z,32.20
2017-10-11T18:29:50.313Z,32.20
2017-10-11T18:32:18.273Z,32.20
2017-10-11T18:34:47.129Z,32.20
2017-10-11T18:37:16.158Z,32.10
2017-10-11T18:39:44.096Z,32.10
2017-10-11T18:42:12.921Z,32.10
2017-10-11T18:44:40.845Z,32.10
2017-10-11T18:47:09.537Z,32.10
2017-10-11T18:49:38.885Z,32.10
2017-10-11T18:52:06.824Z,32.10
2017-10-11T18:54:34.768Z,32.10
2017-10-11T18:57:03.502Z,32.10
2017-10-11T18:59:31.497Z,32.10
2017-10-11T19:01:59.457Z,32.10
2017-10-11T19:04:28.236Z,32.10
2017-10-11T19:06:56.192Z,32.10
2017-10-11T19:09:24.512Z,32.00
2017-10-11T19:11:53.200Z,32.00
2017-10-11T19:14:21.187Z,32.00
2017-10-11T19:16:49.943Z,32.00
2017-10-11T19:19:18.121Z,31.90
2017-10-11T19:21:46.798Z,32.00
2017-10-11T19:24:15.485Z,31.90
2017-10-11T19:26:44.269Z,31.90
2017-10-11T19:29:12.785Z,31.80
2017-10-11T19:31:40.741Z,31.80
2017-10-11T19:34:08.787Z,31.80
2017-10-11T19:36:37.388Z,31.80
2017-10-11T19:39:05.949Z,31.90
2017-10-11T19:41:34.653Z,31.80
2017-10-11T19:44:03.268Z,31.80
2017-10-11T19:46:31.272Z,31.80
2017-10-11T19:49:00.049Z,31.80
2017-10-11T19:51:28.689Z,31.80
2017-10-11T19:53:57.046Z,31.70
2017-10-11T19:56:25.857Z,31.70
2017-10-11T19:58:54.649Z,31.70
2017-10-11T20:01:23.541Z,31.70
2017-10-11T20:03:51.785Z,31.70
2017-10-11T20:06:21.289Z,31.70
2017-10-11T20:08:50.525Z,31.70
2017-10-11T20:11:19.102Z,31.60
2017-10-11T20:13:47.516Z,31.60
2017-10-11T20:16:15.435Z,31.70
2017-10-11T20:18:43.474Z,31.70
2017-10-11T20:21:11.532Z,31.60
2017-10-11T20:23:40.972Z,31.60
2017-10-11T20:26:09.905Z,31.50
2017-10-11T20:28:37.852Z,31.50
2017-10-11T20:31:05.817Z,31.50
2017-10-11T20:33:33.925Z,31.40
2017-10-11T20:36:01.885Z,31.40
2017-10-11T20:38:30.397Z,31.40
2017-10-11T20:40:59.162Z,31.40
2017-10-11T20:43:27.839Z,31.30
2017-10-11T20:45:56.253Z,31.30
2017-10-11T20:48:24.290Z,31.30
2017-10-11T20:50:52.245Z,31.20
2017-10-11T20:53:20.847Z,31.20
2017-10-11T20:55:49.393Z,31.20
2017-10-11T20:58:19.493Z,31.00
2017-10-11T21:00:48.005Z,31.00
2017-10-11T21:03:16.857Z,31.00
2017-10-11T21:05:44.812Z,31.00
2017-10-11T21:08:13.453Z,31.00
2017-10-11T21:10:42.329Z,31.00
2017-10-11T21:13:10.245Z,31.00
2017-10-11T21:15:38.930Z,30.90
2017-10-11T21:18:07.043Z,30.90
2017-10-11T21:20:34.956Z,30.90
2017-10-11T21:23:03.391Z,30.90
2017-10-11T21:25:32.926Z,30.90
2017-10-11T21:28:02.469Z,30.90
2017-10-11T21:30:30.884Z,30.80
2017-10-11T21:32:58.936Z,30.80
2017-10-11T21:35:26.856Z,30.80
2017-10-11T21:37:56.096Z,30.80
2017-10-11T21:40:24.708Z,30.80
2017-10-11T21:42:53.536Z,30.80
2017-10-11T21:45:22.696Z,30.80
2017-10-11T21:47:50.764Z,30.80
2017-10-11T21:50:18.685Z,30.80
2017-10-11T21:52:47.345Z,30.80
2017-10-11T21:55:15.988Z,30.80
2017-10-11T21:57:44.675Z,30.80
2017-10-11T22:00:13.080Z,30.80
2017-10-11T22:02:41.202Z,30.80
2017-10-11T22:05:09.897Z,30.70
2017-10-11T22:07:37.812Z,30.70
2017-10-11T22:10:06.647Z,30.70
2017-10-11T22:12:35.369Z,30.70
2017-10-11T22:15:03.965Z,30.70
2017-10-11T22:17:32.668Z,30.70
2017-10-11T22:20:00.653Z,30.70
2017-10-11T22:22:29.361Z,30.60
2017-10-11T22:24:58.652Z,30.50
2017-10-11T22:27:27.994Z,30.60
2017-10-11T22:29:56.453Z,30.60
2017-10-11T22:45:22.196Z,30.80
2017-10-11T22:47:50.978Z,30.80
2017-10-11T22:50:18.877Z,30.70
2017-10-11T22:52:46.968Z,30.60
2017-10-11T22:55:15.413Z,30.50
2017-10-11T22:57:43.321Z,30.50
2017-10-11T23:00:12.068Z,30.50
2017-10-11T23:02:40.040Z,30.50
2017-10-11T23:05:08.004Z,30.50
2017-10-11T23:07:36.044Z,30.50
2017-10-11T23:10:05.276Z,30.40
2017-10-11T23:12:33.691Z,30.40
2017-10-11T23:15:02.245Z,30.30
2017-10-11T23:17:30.828Z,30.30
2017-10-11T23:19:59.446Z,30.30
2017-10-11T23:22:27.617Z,30.10
2017-10-11T23:24:55.705Z,30.00
2017-10-11T23:27:24.244Z,30.00
2017-10-11T23:29:53.040Z,30.00
2017-10-11T23:32:21.792Z,30.00
2017-10-11T23:34:50.480Z,29.90
2017-10-11T23:37:19.296Z,29.80
2017-10-11T23:39:47.252Z,29.80
2017-10-11T23:42:15.957Z,29.80
2017-10-11T23:44:44.605Z,29.80
2017-10-11T23:47:13.861Z,29.70
2017-10-11T23:49:42.359Z,29.70
2017-10-11T23:52:11.119Z,29.70
2017-10-11T23:54:39.100Z,29.70
2017-10-11T23:57:07.704Z,29.70
2017-10-11T23:59:36.428Z,29.60
